Time;durP1;ratioP1;P1;durP2;ratioP2;P2;SDS_P1;SDS_P2;PMS_P1;PMS_P2;Temp;Humidity;BMP_temperature;BMP_pressure;BME280_temperature;BME280_humidity;BME280_pressure;Samples;Min_cycle;Max_cycle;Signal;HPM_P1;HPM_P2
2022/09/10 00:02:03;;;;;;;3.50;2.13;;;18.30;99.90;;;;;;5099786;28;20027;-77
2022/09/10 00:04:29;;;;;;;5.75;2.75;;;18.30;99.90;;;;;;5106998;28;20626;-78
2022/09/10 00:06:55;;;;;;;6.53;2.47;;;18.30;99.90;;;;;;5107323;28;20024;-77
2022/09/10 00:09:21;;;;;;;3.35;2.15;;;18.30;99.90;;;;;;5105766;28;20114;-77
2022/09/10 00:11:48;;;;;;;5.28;2.00;;;18.30;99.90;;;;;;5109184;28;20043;-76
2022/09/10 00:14:19;;;;;;;3.00;1.70;;;18.40;99.90;;;;;;5100569;28;20045;-77
2022/09/10 00:16:45;;;;;;;9.75;2.00;;;18.40;99.90;;;;;;5108361;28;20073;-77
2022/09/10 00:19:11;;;;;;;3.42;2.20;;;18.40;99.90;;;;;;5100259;28;20020;-78
2022/09/10 00:21:37;;;;;;;5.43;2.38;;;18.40;99.90;;;;;;5096079;28;20023;-77
2022/09/10 00:24:04;;;;;;;2.65;1.80;;;18.40;99.90;;;;;;5103926;28;20031;-77
2022/09/10 00:26:38;;;;;;;5.05;2.20;;;18.50;99.90;;;;;;5110360;28;20024;-77
2022/09/10 00:29:05;;;;;;;2.60;2.15;;;18.50;99.90;;;;;;5100076;28;20127;-77
2022/09/10 00:31:32;;;;;;;4.13;2.40;;;18.50;99.90;;;;;;5093450;28;20020;-78
2022/09/10 00:34:00;;;;;;;6.10;2.20;;;18.50;99.90;;;;;;5100373;28;20027;-78
2022/09/10 00:36:29;;;;;;;2.17;1.95;;;18.60;99.90;;;;;;5095025;28;20466;-78
2022/09/10 00:38:58;;;;;;;2.72;2.03;;;18.60;99.90;;;;;;5107796;28;20019;-78
2022/09/10 00:41:25;;;;;;;4.20;1.80;;;18.60;99.90;;;;;;5109856;28;20023;-78
2022/09/10 00:43:50;;;;;;;3.75;2.20;;;18.60;99.90;;;;;;5103130;28;20060;-77
2022/09/10 00:46:28;;;;;;;2.28;1.98;;;18.70;99.90;;;;;;5093087;28;20032;-77
2022/09/10 00:48:57;;;;;;;3.30;2.33;;;18.70;99.90;;;;;;5102658;28;20084;-78
2022/09/10 00:51:25;;;;;;;2.00;1.90;;;18.70;99.90;;;;;;5094468;28;20012;-77
2022/09/10 00:53:52;;;;;;;1.55;1.45;;;18.80;99.90;;;;;;5101302;28;20578;-78
2022/09/10 00:56:18;;;;;;;2.33;2.00;;;18.70;99.90;;;;;;5091851;28;20168;-78
2022/09/10 00:58:46;;;;;;;4.38;1.85;;;18.80;99.90;;;;;;5115531;27;20115;-77
2022/09/10 01:01:12;;;;;;;2.58;1.77;;;18.80;99.90;;;;;;5100670;28;20502;-77
2022/09/10 01:03:39;;;;;;;1.60;1.50;;;18.80;99.90;;;;;;5101399;28;20035;-76
2022/09/10 01:06:05;;;;;;;1.45;1.35;;;18.80;99.90;;;;;;5109172;28;20058;-76
2022/09/10 01:08:30;;;;;;;3.05;1.83;;;18.80;99.90;;;;;;5101353;28;20059;-76
2022/09/10 01:11:00;;;;;;;4.15;2.08;;;18.80;99.90;;;;;;5109815;28;20387;-77
2022/09/10 01:14:01;;;;;;;2.47;1.58;;;18.80;99.90;;;;;;5093740;28;20379;-78
2022/09/10 01:16:41;;;;;;;2.22;1.98;;;18.80;99.90;;;;;;5093039;28;20024;-76
2022/09/10 01:19:27;;;;;;;4.63;1.80;;;18.70;99.90;;;;;;5102045;28;20015;-77
2022/09/10 01:22:15;;;;;;;2.33;1.63;;;18.70;99.90;;;;;;5106649;28;20456;-77
2022/09/10 01:24:55;;;;;;;2.00;1.50;;;18.70;99.90;;;;;;5096076;28;20023;-77
2022/09/10 01:27:36;;;;;;;1.70;1.58;;;18.70;99.90;;;;;;5100799;28;20031;-78
2022/09/10 01:30:05;;;;;;;2.25;1.55;;;18.70;99.90;;;;;;5095655;28;20066;-77
2022/09/10 01:32:39;;;;;;;1.80;1.60;;;18.60;99.90;;;;;;5100027;28;20111;-76
2022/09/10 01:35:15;;;;;;;3.05;1.40;;;18.70;99.90;;;;;;5107318;28;20111;-77
2022/09/10 01:37:47;;;;;;;2.20;1.73;;;18.70;99.90;;;;;;5101335;28;20102;-77
2022/09/10 01:40:15;;;;;;;2.38;1.55;;;18.70;99.90;;;;;;5107610;28;20023;-76
2022/09/10 01:42:41;;;;;;;4.65;1.70;;;18.70;99.90;;;;;;5107598;28;20229;-76
2022/09/10 01:45:11;;;;;;;2.67;1.33;;;18.70;99.90;;;;;;5106094;28;20031;-76
2022/09/10 01:47:50;;;;;;;6.57;1.50;;;18.70;99.90;;;;;;5101343;28;20052;-76
2022/09/10 01:50:28;;;;;;;1.73;1.42;;;18.60;99.90;;;;;;5106055;28;20024;-77
2022/09/10 01:53:22;;;;;;;4.57;1.92;;;18.60;99.90;;;;;;5103313;28;20032;-77
2022/09/10 01:56:03;;;;;;;2.35;1.40;;;18.60;99.90;;;;;;5110876;28;20058;-77
2022/09/10 01:58:45;;;;;;;3.40;1.63;;;18.60;99.90;;;;;;5100582;28;20542;-76
2022/09/10 02:01:20;;;;;;;2.20;1.48;;;18.60;99.90;;;;;;5093073;28;20024;-77
2022/09/10 02:03:49;;;;;;;1.83;1.30;;;18.70;99.90;;;;;;5099997;28;20032;-75
2022/09/10 02:06:19;;;;;;;2.00;1.60;;;18.70;99.90;;;;;;5109423;28;20056;-79
2022/09/10 02:08:48;;;;;;;1.60;1.33;;;18.80;99.90;;;;;;5099661;28;20032;-78
2022/09/10 02:11:14;;;;;;;1.55;1.20;;;18.80;99.90;;;;;;5109726;28;20024;-78
2022/09/10 02:13:41;;;;;;;1.30;1.17;;;18.80;99.90;;;;;;5102214;28;20028;-77
2022/09/10 02:16:36;;;;;;;6.35;1.30;;;18.90;99.90;;;;;;5091082;28;20030;-77
2022/09/10 02:19:03;;;;;;;2.25;1.40;;;18.90;99.90;;;;;;5096653;28;20035;-76
2022/09/10 02:21:30;;;;;;;3.42;1.45;;;19.00;99.90;;;;;;5107776;28;20051;-77
2022/09/10 02:24:04;;;;;;;2.55;1.40;;;18.90;99.90;;;;;;5097488;28;20016;-77
2022/09/10 02:26:32;;;;;;;2.25;1.42;;;19.00;99.90;;;;;;5091281;28;20031;-78
2022/09/10 02:28:58;;;;;;;1.40;1.30;;;19.00;99.90;;;;;;5096744;28;20478;-77
2022/09/10 02:31:24;;;;;;;1.83;1.40;;;18.90;99.90;;;;;;5092683;28;20020;-78
2022/09/10 02:33:50;;;;;;;2.55;1.23;;;18.90;99.90;;;;;;5103543;28;20072;-78
2022/09/10 02:36:16;;;;;;;1.65;1.38;;;18.90;99.90;;;;;;5109069;28;20390;-77
2022/09/10 02:38:43;;;;;;;1.60;1.50;;;18.80;99.90;;;;;;5101873;28;20363;-78
2022/09/10 02:41:09;;;;;;;2.15;1.42;;;18.80;99.90;;;;;;5092596;28;20038;-79
2022/09/10 02:43:37;;;;;;;4.78;1.40;;;18.80;99.90;;;;;;5101013;28;20106;-79
2022/09/10 02:46:06;;;;;;;1.90;1.38;;;18.80;99.90;;;;;;5091453;28;20016;-78
2022/09/10 02:48:31;;;;;;;1.25;1.15;;;18.80;99.90;;;;;;5102685;28;20212;-78
2022/09/10 02:50:57;;;;;;;1.75;1.33;;;18.80;99.90;;;;;;5089926;28;20032;-79
2022/09/10 02:53:24;;;;;;;3.67;1.27;;;18.80;99.90;;;;;;5104027;28;20020;-79
2022/09/10 02:55:51;;;;;;;1.40;1.30;;;18.80;99.90;;;;;;5112340;28;20441;-78
2022/09/10 02:58:17;;;;;;;3.58;1.50;;;18.80;99.90;;;;;;5106507;28;20028;-77
2022/09/10 03:00:44;;;;;;;1.92;1.52;;;18.80;99.90;;;;;;5094894;28;20044;-80
2022/09/10 03:03:11;;;;;;;3.50;1.33;;;18.80;99.90;;;;;;5101648;28;20537;-78
2022/09/10 03:05:37;;;;;;;2.72;1.60;;;18.90;99.90;;;;;;5094232;28;20031;-78
2022/09/10 03:08:03;;;;;;;4.20;1.20;;;18.90;99.90;;;;;;5103434;28;20645;-78
2022/09/10 03:10:30;;;;;;;6.25;1.30;;;18.90;99.90;;;;;;5096560;28;20490;-78
2022/09/10 03:12:56;;;;;;;2.38;1.25;;;19.00;99.90;;;;;;5103823;28;20424;-78
2022/09/10 03:15:22;;;;;;;1.90;1.35;;;18.90;99.90;;;;;;5096794;28;20035;-78
2022/09/10 03:17:48;;;;;;;2.83;1.48;;;19.00;99.90;;;;;;5101851;28;20123;-78
2022/09/10 03:20:13;;;;;;;2.72;1.48;;;19.00;99.90;;;;;;5098166;28;20394;-78
2022/09/10 03:22:39;;;;;;;2.95;1.48;;;19.00;99.90;;;;;;5100596;28;20107;-79
2022/09/10 03:25:05;;;;;;;1.77;1.25;;;19.00;99.90;;;;;;5096932;28;20028;-79
2022/09/10 03:27:31;;;;;;;7.88;1.58;;;19.00;99.90;;;;;;5102686;28;20034;-77
2022/09/10 03:29:57;;;;;;;3.08;1.58;;;19.00;99.90;;;;;;5098212;28;20020;-77
2022/09/10 03:32:23;;;;;;;2.95;1.52;;;19.00;99.90;;;;;;5099581;28;20024;-79
2022/09/10 03:34:48;;;;;;;2.65;1.60;;;19.00;99.90;;;;;;5108623;28;20401;-79
2022/09/10 03:37:15;;;;;;;1.50;1.40;;;19.00;99.90;;;;;;5109952;28;20024;-79
2022/09/10 03:39:41;;;;;;;1.83;1.58;;;19.00;99.90;;;;;;5097464;28;20031;-78
2022/09/10 03:42:06;;;;;;;2.35;1.30;;;19.00;99.90;;;;;;5099537;28;20023;-78
2022/09/10 03:44:32;;;;;;;1.40;1.10;;;19.00;99.90;;;;;;5099502;28;20024;-78
2022/09/10 03:46:59;;;;;;;2.35;1.33;;;18.90;99.90;;;;;;5096113;28;20055;-79
2022/09/10 03:49:26;;;;;;;3.55;1.40;;;19.00;99.90;;;;;;5105559;28;20036;-80
2022/09/10 03:51:52;;;;;;;2.20;1.45;;;19.00;99.90;;;;;;5109641;28;20065;-79
2022/09/10 03:54:18;;;;;;;1.27;1.27;;;18.90;99.90;;;;;;5101031;28;20031;-79
2022/09/10 03:56:44;;;;;;;1.38;1.27;;;19.00;99.90;;;;;;5097833;28;20025;-79
2022/09/10 03:59:12;;;;;;;2.28;1.48;;;18.90;99.90;;;;;;5102185;28;20476;-81
2022/09/10 04:01:38;;;;;;;2.13;1.58;;;18.90;99.90;;;;;;5096978;28;20047;-80
2022/09/10 04:04:04;;;;;;;1.48;1.33;;;18.90;99.90;;;;;;5106204;28;20015;-80
2022/09/10 04:06:33;;;;;;;1.52;1.38;;;18.90;99.90;;;;;;5109788;28;20034;-79
2022/09/10 04:09:00;;;;;;;3.28;1.40;;;18.90;99.90;;;;;;5095924;28;20579;-79
2022/09/10 04:11:26;;;;;;;1.40;1.30;;;18.90;99.90;;;;;;5095673;28;20066;-78
2022/09/10 04:13:52;;;;;;;4.15;1.50;;;18.90;99.90;;;;;;5103519;28;20031;-78
2022/09/10 04:16:20;;;;;;;5.13;1.67;;;18.90;99.90;;;;;;5095282;28;20429;-78
2022/09/10 04:18:45;;;;;;;2.67;1.20;;;18.80;99.90;;;;;;5097639;28;20028;-78
2022/09/10 04:21:11;;;;;;;1.50;1.30;;;18.80;99.90;;;;;;5094424;28;20024;-78
2022/09/10 04:23:40;;;;;;;1.55;1.20;;;18.80;99.90;;;;;;5106120;28;20023;-78
2022/09/10 04:26:13;;;;;;;2.13;1.13;;;18.80;99.90;;;;;;5111592;28;20045;-78
2022/09/10 04:28:39;;;;;;;4.38;1.17;;;18.80;99.90;;;;;;5103854;28;20504;-78
2022/09/10 04:31:05;;;;;;;0.90;0.90;;;18.80;99.90;;;;;;5093808;28;20436;-77
2022/09/10 04:33:32;;;;;;;1.48;1.38;;;18.80;99.90;;;;;;5102335;28;20020;-77
2022/09/10 04:35:59;;;;;;;2.03;1.17;;;18.80;99.90;;;;;;5111555;28;20020;-77
2022/09/10 04:38:26;;;;;;;3.35;1.35;;;18.80;99.90;;;;;;5101360;28;20065;-79
2022/09/10 04:40:52;;;;;;;1.52;1.17;;;18.80;99.90;;;;;;5092546;28;20108;-80
2022/09/10 04:43:17;;;;;;;1.05;1.05;;;18.90;99.90;;;;;;5098150;28;20109;-79
2022/09/10 04:45:43;;;;;;;2.33;1.17;;;18.90;99.90;;;;;;5091720;28;20089;-80
2022/09/10 04:48:09;;;;;;;1.17;1.10;;;18.90;99.90;;;;;;5103522;28;20056;-81
2022/09/10 04:50:34;;;;;;;1.38;1.23;;;18.90;99.90;;;;;;5094010;28;20095;-81
2022/09/10 04:53:00;;;;;;;1.60;1.20;;;19.00;99.90;;;;;;5099291;28;20118;-80
2022/09/10 04:55:26;;;;;;;3.03;1.20;;;19.00;99.90;;;;;;5109319;28;20026;-79
2022/09/10 04:57:53;;;;;;;1.45;1.02;;;19.10;99.90;;;;;;5102344;28;20028;-79
2022/09/10 05:00:18;;;;;;;2.60;1.10;;;19.10;99.90;;;;;;5092108;28;20031;-80
2022/09/10 05:02:45;;;;;;;1.25;1.10;;;19.10;99.90;;;;;;5099834;28;20028;-79
2022/09/10 05:05:11;;;;;;;1.77;1.15;;;19.10;99.90;;;;;;5108069;28;20024;-78
2022/09/10 05:07:36;;;;;;;2.40;1.25;;;19.20;99.90;;;;;;5102846;28;20036;-79
2022/09/10 05:10:02;;;;;;;3.08;1.35;;;19.20;99.90;;;;;;5093935;28;20039;-79
2022/09/10 05:12:28;;;;;;;2.42;1.00;;;19.20;99.90;;;;;;5099715;28;20325;-79
2022/09/10 05:14:53;;;;;;;1.83;1.02;;;19.30;99.90;;;;;;5109175;28;20530;-77
2022/09/10 05:17:19;;;;;;;1.30;1.20;;;19.30;99.90;;;;;;5105655;28;20023;-80
2022/09/10 05:19:45;;;;;;;1.15;1.05;;;19.40;99.90;;;;;;5095871;28;20020;-78
2022/09/10 05:22:10;;;;;;;1.40;1.20;;;19.40;99.90;;;;;;5099455;28;20118;-80
2022/09/10 05:24:36;;;;;;;0.90;0.85;;;19.30;99.90;;;;;;5096685;28;20470;-78
2022/09/10 05:27:02;;;;;;;1.52;1.13;;;19.40;99.90;;;;;;5098590;28;20477;-78
2022/09/10 05:29:27;;;;;;;2.25;1.10;;;19.40;99.90;;;;;;5097950;28;20520;-79
2022/09/10 05:31:53;;;;;;;1.38;1.00;;;19.40;99.90;;;;;;5095642;28;20153;-78
2022/09/10 05:34:19;;;;;;;0.90;0.90;;;19.40;99.90;;;;;;5103868;28;20031;-79
2022/09/10 05:36:45;;;;;;;1.45;1.08;;;19.40;99.90;;;;;;5107770;28;20020;-78
2022/09/10 05:39:10;;;;;;;2.25;1.10;;;19.50;99.90;;;;;;5100013;28;20164;-78
2022/09/10 05:41:36;;;;;;;3.00;1.10;;;19.50;99.90;;;;;;5094643;28;20580;-78
2022/09/10 05:44:03;;;;;;;2.13;1.05;;;19.50;99.90;;;;;;5101583;28;20019;-77
2022/09/10 05:46:29;;;;;;;1.88;0.90;;;19.40;99.90;;;;;;5108026;28;20042;-79
2022/09/10 05:48:55;;;;;;;0.80;0.80;;;19.50;99.90;;;;;;5100619;28;20490;-78
2022/09/10 05:51:21;;;;;;;0.98;0.80;;;19.50;99.90;;;;;;5093509;28;20445;-78
2022/09/10 05:53:47;;;;;;;0.90;0.70;;;19.50;99.90;;;;;;5101923;28;20021;-78
2022/09/10 05:56:13;;;;;;;0.60;0.60;;;19.50;99.90;;;;;;5093605;28;20020;-78
2022/09/10 05:58:38;;;;;;;2.30;0.73;;;19.50;99.90;;;;;;5102266;28;20024;-78
2022/09/10 06:01:04;;;;;;;0.80;0.70;;;19.50;99.90;;;;;;5082079;28;20063;-78
2022/09/10 06:03:30;;;;;;;0.80;0.80;;;19.50;99.90;;;;;;5101109;28;20024;-79
2022/09/10 06:05:55;;;;;;;0.77;0.77;;;19.50;99.90;;;;;;5110205;28;20027;-78
2022/09/10 06:08:21;;;;;;;1.05;1.00;;;19.60;99.90;;;;;;5102479;28;20023;-78
2022/09/10 06:10:59;;;;;;;2.85;0.85;;;19.70;99.90;;;;;;5091352;28;20485;-80
2022/09/10 06:13:25;;;;;;;0.98;0.90;;;19.70;99.90;;;;;;5104140;28;20016;-80
2022/09/10 06:15:51;;;;;;;0.80;0.80;;;19.80;99.90;;;;;;5091684;28;20031;-78
2022/09/10 06:18:18;;;;;;;0.68;0.65;;;19.80;99.90;;;;;;5101878;28;20386;-78
2022/09/10 06:20:43;;;;;;;5.20;0.85;;;19.80;99.90;;;;;;5090909;28;20027;-79
2022/09/10 06:23:09;;;;;;;1.60;0.90;;;19.90;99.90;;;;;;5101293;28;20028;-78
2022/09/10 06:25:34;;;;;;;0.88;0.88;;;20.00;99.90;;;;;;5092647;28;20030;-78
2022/09/10 06:28:01;;;;;;;1.02;0.80;;;20.00;99.90;;;;;;5101111;28;20093;-79
2022/09/10 06:30:27;;;;;;;1.70;0.90;;;20.10;99.90;;;;;;5094066;28;20035;-79
2022/09/10 06:32:52;;;;;;;1.90;0.93;;;20.10;99.90;;;;;;5104626;28;20031;-78
2022/09/10 06:35:18;;;;;;;1.27;0.88;;;20.20;99.90;;;;;;5100692;28;20550;-79
2022/09/10 06:37:44;;;;;;;0.95;0.90;;;20.30;99.90;;;;;;5104062;28;20479;-80
2022/09/10 06:40:09;;;;;;;0.73;0.70;;;20.40;99.90;;;;;;5098868;28;20492;-80
2022/09/10 06:42:35;;;;;;;2.70;0.98;;;20.50;99.90;;;;;;5103963;28;20478;-78
2022/09/10 06:45:01;;;;;;;1.10;0.60;;;20.70;99.90;;;;;;5099044;28;20020;-79
2022/09/10 06:47:27;;;;;;;1.45;0.90;;;20.90;99.90;;;;;;5103545;28;20031;-81
2022/09/10 06:49:52;;;;;;;0.77;0.77;;;21.10;99.90;;;;;;5111923;28;20037;-85
2022/09/10 06:52:18;;;;;;;3.47;0.90;;;21.30;99.90;;;;;;5111505;28;20058;-80
2022/09/10 06:54:44;;;;;;;2.20;1.17;;;21.40;99.90;;;;;;5093948;28;20570;-81
2022/09/10 06:57:10;;;;;;;0.93;0.55;;;21.60;99.90;;;;;;5102549;28;20027;-82
2022/09/10 06:59:36;;;;;;;2.80;1.00;;;21.70;99.90;;;;;;5098149;28;20382;-81
2022/09/10 07:02:01;;;;;;;1.75;1.00;;;21.80;99.90;;;;;;5101011;28;20099;-80
2022/09/10 07:04:27;;;;;;;1.45;0.60;;;21.90;99.90;;;;;;5108061;28;20114;-81
2022/09/10 07:06:53;;;;;;;2.63;0.70;;;21.90;99.90;;;;;;5110885;28;20103;-83
2022/09/10 07:09:19;;;;;;;2.20;0.80;;;22.00;99.90;;;;;;5101666;28;20050;-82
2022/09/10 07:11:45;;;;;;;0.93;0.52;;;22.10;99.90;;;;;;5097581;28;20421;-81
2022/09/10 07:14:12;;;;;;;4.20;0.88;;;22.10;99.90;;;;;;5104613;28;20054;-83
2022/09/10 07:16:43;;;;;;;1.15;0.65;;;22.10;99.90;;;;;;5110464;28;20008;-82
2022/09/10 07:19:09;;;;;;;3.08;0.80;;;22.10;99.90;;;;;;5105471;28;20039;-81
2022/09/10 07:21:36;;;;;;;0.73;0.70;;;22.10;99.90;;;;;;5110484;28;20021;-79
2022/09/10 07:24:03;;;;;;;3.45;0.80;;;22.20;99.90;;;;;;5103798;27;20028;-76
2022/09/10 07:26:29;;;;;;;1.75;0.60;;;22.30;99.90;;;;;;5096523;28;20012;-77
2022/09/10 07:28:55;;;;;;;8.07;1.00;;;22.20;99.90;;;;;;5104544;28;20398;-77
2022/09/10 07:31:27;;;;;;;0.70;0.70;;;22.20;99.90;;;;;;5096171;28;20539;-78
2022/09/10 07:33:54;;;;;;;1.65;1.02;;;22.20;99.90;;;;;;5106422;28;20076;-78
2022/09/10 07:36:20;;;;;;;3.35;0.68;;;22.20;99.90;;;;;;5111279;28;20021;-76
2022/09/10 07:38:46;;;;;;;2.83;0.88;;;22.20;99.90;;;;;;5104355;28;20039;-81
2022/09/10 07:41:14;;;;;;;1.60;0.70;;;22.10;99.90;;;;;;5094577;28;20043;-79
2022/09/10 07:43:40;;;;;;;0.77;0.77;;;22.10;99.90;;;;;;5103318;28;20035;-80
2022/09/10 07:46:10;;;;;;;1.27;0.70;;;22.00;99.90;;;;;;5093152;28;20143;-79
2022/09/10 07:48:37;;;;;;;1.50;0.90;;;22.00;99.90;;;;;;5102461;28;20119;-78
2022/09/10 07:51:06;;;;;;;0.90;0.80;;;22.00;99.90;;;;;;5110747;28;20081;-79
2022/09/10 07:53:33;;;;;;;1.10;0.80;;;22.00;99.90;;;;;;5106051;28;20024;-79
2022/09/10 07:56:04;;;;;;;2.97;0.80;;;22.00;99.90;;;;;;5112199;28;20020;-79
2022/09/10 07:58:31;;;;;;;2.63;0.70;;;22.00;99.90;;;;;;5102723;28;20027;-80
2022/09/10 08:01:01;;;;;;;1.25;0.82;;;22.00;99.90;;;;;;5093619;28;20016;-80
2022/09/10 08:03:30;;;;;;;3.28;1.20;;;22.00;99.90;;;;;;5100409;28;20024;-79
2022/09/10 08:06:00;;;;;;;0.70;0.70;;;22.10;99.90;;;;;;5112627;28;20016;-84
2022/09/10 08:08:34;;;;;;;1.25;0.77;;;22.20;99.90;;;;;;5102000;28;20035;-80
2022/09/10 08:11:11;;;;;;;0.70;0.70;;;22.30;99.90;;;;;;5092601;28;20147;-79
2022/09/10 08:13:40;;;;;;;5.68;0.80;;;22.40;99.90;;;;;;5101305;28;20051;-79
2022/09/10 08:16:08;;;;;;;1.75;0.75;;;22.50;99.90;;;;;;5111361;28;20102;-76
2022/09/10 08:18:34;;;;;;;2.20;0.73;;;22.70;99.90;;;;;;5104676;28;20023;-75
2022/09/10 08:21:01;;;;;;;2.92;0.68;;;22.90;99.90;;;;;;5092847;28;20107;-72
2022/09/10 08:23:28;;;;;;;0.70;0.70;;;23.10;99.90;;;;;;5097438;28;20554;-75
2022/09/10 08:25:53;;;;;;;1.25;0.60;;;23.30;99.90;;;;;;5112327;28;20077;-76
2022/09/10 08:28:20;;;;;;;0.60;0.50;;;23.50;99.90;;;;;;5105091;28;20485;-76
2022/09/10 08:31:00;;;;;;;0.43;0.43;;;23.60;99.90;;;;;;5090548;28;20061;-74
2022/09/10 08:33:30;;;;;;;0.60;0.60;;;23.70;99.90;;;;;;5097398;28;20114;-74
2022/09/10 08:35:58;;;;;;;0.50;0.50;;;23.80;99.90;;;;;;5109609;28;20092;-73
2022/09/10 08:38:33;;;;;;;0.90;0.80;;;23.80;99.90;;;;;;5104183;28;20112;-79
2022/09/10 08:41:01;;;;;;;1.25;0.63;;;23.80;99.90;;;;;;5109912;28;20024;-80
2022/09/10 08:44:01;;;;;;;1.00;0.60;;;23.80;99.90;;;;;;5101696;28;20062;-75
2022/09/10 08:46:32;;;;;;;1.80;0.65;;;23.80;99.90;;;;;;5053574;28;20033;-77
2022/09/10 08:49:23;;;;;;;1.75;0.60;;;23.80;99.90;;;;;;5099936;28;20075;-76
2022/09/10 08:52:05;;;;;;;41.72;21.05;;;23.80;99.90;;;;;;5106957;28;20072;-76
2022/09/10 08:54:46;;;;;;;328.20;211.18;;;23.80;99.90;;;;;;5091166;28;20494;-77
2022/09/10 08:57:25;;;;;;;64.28;37.38;;;23.80;99.90;;;;;;5097215;28;20032;-77
2022/09/10 08:59:54;;;;;;;53.40;30.27;;;23.70;99.90;;;;;;5105669;28;20023;-77
2022/09/10 09:02:26;;;;;;;38.45;26.55;;;23.70;99.90;;;;;;5098716;28;20115;-76
2022/09/10 09:05:16;;;;;;;71.68;48.88;;;23.70;99.90;;;;;;5094723;28;20028;-77
2022/09/10 09:07:42;;;;;;;30.73;19.02;;;23.70;99.90;;;;;;5101657;28;20511;-76
2022/09/10 09:10:29;;;;;;;30.88;17.65;;;23.70;99.90;;;;;;5092892;28;20028;-77
2022/09/10 09:13:28;;;;;;;9.63;7.07;;;23.80;99.90;;;;;;5097397;28;20023;-77
2022/09/10 09:16:24;;;;;;;24.80;12.05;;;23.90;99.90;;;;;;5110911;28;20077;-78
2022/09/10 09:19:13;;;;;;;22.70;15.40;;;24.00;99.90;;;;;;5095794;28;20028;-76
2022/09/10 09:21:44;;;;;;;8.27;4.15;;;24.00;99.90;;;;;;5093620;28;20020;-76
2022/09/10 09:24:30;;;;;;;8.23;4.88;;;24.00;99.90;;;;;;5099936;28;20081;-76
2022/09/10 09:27:08;;;;;;;23.38;15.70;;;24.10;99.90;;;;;;5093533;28;20482;-74
2022/09/10 09:29:49;;;;;;;3.33;2.40;;;24.20;99.90;;;;;;5097371;28;20028;-75
2022/09/10 09:32:17;;;;;;;9.68;6.38;;;24.20;99.90;;;;;;5095293;28;20024;-74
2022/09/10 09:35:03;;;;;;;14.93;9.68;;;24.30;99.90;;;;;;5106652;28;20121;-75
2022/09/10 09:37:30;;;;;;;6.28;3.92;;;24.30;99.90;;;;;;5103851;28;20047;-75
2022/09/10 09:40:04;;;;;;;8.85;6.35;;;24.30;99.90;;;;;;5107914;28;20066;-75
2022/09/10 09:42:47;;;;;;;8.35;4.10;;;24.30;99.90;;;;;;5104831;28;20089;-78
2022/09/10 09:45:36;;;;;;;9.77;6.65;;;24.30;99.90;;;;;;5091431;28;20075;-77
2022/09/10 09:48:09;;;;;;;4.15;3.17;;;24.30;99.90;;;;;;5102371;28;20044;-76
2022/09/10 09:50:40;;;;;;;10.80;6.93;;;24.30;99.90;;;;;;5090946;28;20016;-76
2022/09/10 09:53:08;;;;;;;5.60;3.63;;;24.30;99.90;;;;;;5102279;28;20050;-75
2022/09/10 09:55:40;;;;;;;3.22;2.33;;;24.40;99.90;;;;;;5091186;28;20565;-79
2022/09/10 09:58:21;;;;;;;1.73;1.05;;;24.60;99.90;;;;;;5102293;28;20024;-76
2022/09/10 10:00:53;;;;;;;1.48;0.70;;;24.70;99.90;;;;;;5090747;28;20482;-76
2022/09/10 10:03:27;;;;;;;3.58;1.20;;;24.70;99.90;;;;;;5101071;28;20085;-78
2022/09/10 10:06:05;;;;;;;2.15;1.02;;;24.80;99.90;;;;;;5093924;28;20033;-79
2022/09/10 10:08:36;;;;;;;4.10;1.02;;;24.90;99.90;;;;;;5103435;28;20042;-76
2022/09/10 10:11:03;;;;;;;7.03;1.08;;;24.90;99.90;;;;;;5113579;28;20024;-76
2022/09/10 10:13:40;;;;;;;4.70;1.02;;;25.00;99.90;;;;;;5106271;28;20016;-76
2022/09/10 10:16:21;;;;;;;5.30;0.90;;;25.00;99.90;;;;;;5113183;28;20024;-76
2022/09/10 10:18:48;;;;;;;2.13;0.90;;;25.20;99.90;;;;;;5089685;28;20076;-77
2022/09/10 10:21:28;;;;;;;3.67;1.02;;;25.50;99.90;;;;;;5112473;27;20024;-77
2022/09/10 10:23:54;;;;;;;2.22;0.88;;;25.60;99.90;;;;;;5101011;28;20137;-75
2022/09/10 10:26:19;;;;;;;9.52;1.25;;;25.60;99.90;;;;;;5095910;28;20296;-78
2022/09/10 10:28:46;;;;;;;3.35;1.00;;;25.60;99.90;;;;;;5102304;28;20047;-77
2022/09/10 10:31:12;;;;;;;24.30;1.73;;;25.70;99.90;;;;;;5096408;28;20504;-77
2022/09/10 10:34:02;;;;;;;2.83;1.00;;;25.90;99.90;;;;;;5104060;28;20119;-77
2022/09/10 10:36:43;;;;;;;4.05;1.30;;;25.90;99.90;;;;;;5095139;28;20051;-77
2022/09/10 10:39:38;;;;;;;2.50;1.25;;;26.00;99.90;;;;;;5103377;28;20030;-78
2022/09/10 10:42:19;;;;;;;1.35;0.80;;;26.10;99.90;;;;;;5099007;28;20462;-78
2022/09/10 10:45:04;;;;;;;2.15;0.95;;;26.20;99.90;;;;;;5098938;27;20027;-76
2022/09/10 10:48:08;;;;;;;6.20;0.95;;;26.50;99.90;;;;;;5101374;28;20039;-76
2022/09/10 10:50:48;;;;;;;7.32;1.08;;;26.80;99.90;;;;;;5072681;28;20052;-76
2022/09/10 10:53:35;;;;;;;1.10;1.00;;;27.00;99.90;;;;;;5101313;28;20031;-78
2022/09/10 10:56:13;;;;;;;3.72;1.20;;;26.90;99.90;;;;;;5113890;28;20020;-78
2022/09/10 10:58:48;;;;;;;3.65;1.27;;;26.80;99.90;;;;;;5105045;28;20478;-81
2022/09/10 11:01:23;;;;;;;2.38;1.42;;;26.60;99.90;;;;;;5102455;28;20030;-79
2022/09/10 11:03:51;;;;;;;3.88;1.27;;;26.40;99.90;;;;;;5099414;28;20107;-79
2022/09/10 11:06:23;;;;;;;3.97;1.20;;;26.00;99.90;;;;;;5096542;28;20391;-77
2022/09/10 11:09:10;;;;;;;4.03;1.50;;;25.60;99.90;;;;;;5109557;28;20031;-75
2022/09/10 11:12:00;;;;;;;2.42;1.75;;;25.40;99.90;;;;;;5109100;28;20024;-79
2022/09/10 11:14:55;;;;;;;2.10;1.60;;;25.50;99.90;;;;;;5073492;28;20028;-76
2022/09/10 11:17:35;;;;;;;2.15;1.60;;;25.60;99.90;;;;;;5093069;28;20061;-77
2022/09/10 11:20:24;;;;;;;4.88;2.40;;;25.80;99.90;;;;;;5094501;28;20386;-77
2022/09/10 11:22:59;;;;;;;4.88;2.17;;;26.00;99.90;;;;;;5097698;28;20119;-77
2022/09/10 11:25:36;;;;;;;3.78;1.60;;;26.10;99.90;;;;;;5073424;28;20300;-76
2022/09/10 11:28:18;;;;;;;2.15;1.40;;;26.20;99.90;;;;;;5099126;28;20494;-75
2022/09/10 11:30:51;;;;;;;3.55;1.90;;;26.30;99.90;;;;;;5090100;28;20709;-74
2022/09/10 11:33:22;;;;;;;;;;;26.30;99.90;;;;;;5100630;28;20088;-75
2022/09/10 11:36:16;;;;;;;1.40;1.20;;;26.40;99.90;;;;;;5106501;28;19904;-75
2022/09/10 11:38:56;;;;;;;1.45;1.20;;;26.70;99.90;;;;;;5097971;28;20123;-75
2022/09/10 11:41:24;;;;;;;5.70;2.08;;;26.90;99.90;;;;;;5106521;28;20020;-75
2022/09/10 11:44:22;;;;;;;2.35;1.30;;;27.20;99.90;;;;;;5100650;28;20028;-76
2022/09/10 11:47:03;;;;;;;4.18;1.95;;;27.20;99.90;;;;;;5095677;28;20107;-75
2022/09/10 11:49:41;;;;;;;2.78;1.20;;;27.20;99.90;;;;;;5099061;28;20227;-76
2022/09/10 11:52:10;;;;;;;1.90;1.00;;;27.30;99.90;;;;;;5105370;28;20035;-76
2022/09/10 11:54:37;;;;;;;2.92;1.42;;;27.40;99.90;;;;;;5097195;28;20027;-76
2022/09/10 11:57:31;;;;;;;2.00;1.10;;;27.50;99.90;;;;;;5097544;28;20058;-75
2022/09/10 12:00:16;;;;;;;2.05;1.25;;;27.50;99.90;;;;;;5094077;28;20547;-76
2022/09/10 12:03:01;;;;;;;1.42;0.80;;;27.40;99.90;;;;;;5099115;28;20150;-76
2022/09/10 12:05:32;;;;;;;3.28;1.20;;;27.20;99.90;;;;;;5078478;28;20024;-76
2022/09/10 12:08:18;;;;;;;5.20;1.10;;;27.00;99.90;;;;;;5098363;28;20528;-77
2022/09/10 12:11:23;;;;;;;2.20;0.85;;;27.70;99.90;;;;;;5112893;28;20114;-77
2022/09/10 12:13:51;;;;;;;2.58;0.70;;;29.70;99.90;;;;;;5050779;28;20028;-77
2022/09/10 12:16:27;;;;;;;1.60;0.77;;;31.90;99.90;;;;;;5092945;28;20051;-79
2022/09/10 12:18:54;;;;;;;1.45;1.10;;;33.70;97.40;;;;;;5090952;28;20547;-78
2022/09/10 12:21:36;;;;;;;1.58;0.70;;;35.10;96.20;;;;;;5093756;28;20477;-79
2022/09/10 12:24:31;;;;;;;1.30;0.77;;;36.30;94.90;;;;;;5094375;28;20500;-79
2022/09/10 12:26:59;;;;;;;4.18;0.90;;;37.60;92.00;;;;;;5096408;28;20114;-79
2022/09/10 12:29:37;;;;;;;0.45;0.40;;;38.90;88.50;;;;;;5104541;28;20027;-78
2022/09/10 12:32:18;;;;;;;3.30;0.70;;;39.80;83.10;;;;;;5087415;28;20028;-78
2022/09/10 12:34:48;;;;;;;3.15;0.82;;;40.60;80.00;;;;;;5096783;28;20028;-77
2022/09/10 12:37:27;;;;;;;3.88;1.08;;;41.30;80.70;;;;;;5098225;28;20036;-75
2022/09/10 12:40:34;;;;;;;1.50;1.00;;;43.30;75.50;;;;;;5095375;28;20116;-77
2022/09/10 12:43:37;;;;;;;1.48;0.90;;;44.70;69.20;;;;;;5094894;28;20138;-76
2022/09/10 12:46:17;;;;;;;1.75;0.90;;;45.40;63.60;;;;;;5092407;28;20024;-76
2022/09/10 12:49:10;;;;;;;1.45;0.77;;;46.30;62.40;;;;;;5102125;28;20051;-77
2022/09/10 12:51:50;;;;;;;4.43;0.90;;;47.20;58.40;;;;;;5085829;28;20034;-78
2022/09/10 12:54:16;;;;;;;;;;;47.80;57.30;;;;;;5095461;28;20031;-76
2022/09/10 12:57:02;;;;;;;1.80;1.05;;;48.40;55.50;;;;;;5107009;28;20003;-82
2022/09/10 13:00:01;;;;;;;1.25;1.00;;;48.50;53.50;;;;;;5090597;28;20103;-79
2022/09/10 13:02:33;;;;;;;1.38;0.85;;;48.80;53.80;;;;;;5092676;28;20537;-77
2022/09/10 13:05:37;;;;;;;1.85;0.98;;;49.10;51.90;;;;;;5094138;28;20036;-77
2022/09/10 13:08:14;;;;;;;13.00;1.20;;;49.20;51.80;;;;;;5061138;28;20090;-76
2022/09/10 13:11:02;;;;;;;1.58;0.93;;;49.50;51.10;;;;;;5111080;28;20035;-77